createdAt,value
2022-08-10T00:00:23.935Z,6.61
2022-08-10T00:01:26.787Z,8.24
2022-08-10T00:02:29.887Z,7.73
2022-08-10T00:03:32.977Z,6.65
2022-08-10T00:04:35.939Z,7.08
2022-08-10T00:05:43.874Z,8.17
2022-08-10T00:06:43.328Z,7.90
2022-08-10T00:07:46.820Z,8.61
2022-08-10T00:08:49.710Z,7.46
2022-08-10T00:09:52.670Z,7.64
2022-08-10T00:10:55.546Z,7.81
2022-08-10T00:11:58.421Z,9.87
2022-08-10T00:13:01.499Z,13.16
2022-08-10T00:14:04.377Z,8.77
2022-08-10T00:15:07.463Z,12.00
2022-08-10T00:16:10.232Z,12.82
2022-08-10T00:17:13.511Z,10.23
2022-08-10T00:18:35.223Z,7.47
2022-08-10T00:19:20.899Z,7.82
2022-08-10T00:20:25.223Z,11.01
2022-08-10T00:21:28.088Z,7.49
2022-08-10T00:22:31.255Z,9.27
2022-08-10T00:23:34.569Z,7.54
2022-08-10T00:24:41.444Z,9.64
2022-08-10T00:25:42.551Z,9.81
2022-08-10T00:27:58.555Z,11.03
2022-08-10T00:28:03.281Z,13.12
2022-08-10T00:28:55.285Z,13.30
2022-08-10T00:29:58.459Z,11.12
2022-08-10T00:31:01.544Z,8.92
2022-08-10T00:32:04.513Z,11.21
2022-08-10T00:33:07.291Z,14.17
2022-08-10T00:34:10.159Z,9.46
2022-08-10T00:35:12.935Z,9.80
2022-08-10T00:36:15.918Z,9.28
2022-08-10T00:37:18.880Z,10.70
2022-08-10T00:38:21.751Z,9.72
2022-08-10T00:39:25.198Z,13.21
2022-08-10T00:40:37.348Z,8.89
2022-08-10T00:41:33.249Z,8.79
2022-08-10T00:42:36.618Z,9.45
2022-08-10T00:43:39.711Z,10.22
2022-08-10T00:44:42.905Z,8.33
2022-08-10T00:45:45.769Z,10.08
2022-08-10T00:46:50.075Z,7.24
2022-08-10T00:47:53.156Z,8.38
2022-08-10T00:49:00.627Z,8.85
2022-08-10T00:50:01.876Z,8.24
2022-08-10T00:51:04.851Z,12.68
2022-08-10T00:52:07.627Z,9.79
2022-08-10T00:53:10.633Z,9.44
2022-08-10T00:54:24.030Z,10.56
2022-08-10T00:55:18.400Z,10.55
2022-08-10T00:57:15.244Z,11.32
2022-08-10T00:57:25.893Z,10.67
2022-08-10T00:58:28.874Z,10.35
2022-08-10T00:59:31.744Z,9.98
2022-08-10T01:00:35.845Z,8.48
2022-08-10T01:02:09.904Z,10.77
2022-08-10T01:02:43.723Z,9.71
2022-08-10T01:04:39.569Z,8.56
2022-08-10T01:04:59.883Z,8.37
2022-08-10T01:05:57.382Z,10.83
2022-08-10T01:07:00.467Z,7.97
2022-08-10T01:08:03.332Z,10.66
2022-08-10T01:09:06.616Z,8.29
2022-08-10T01:10:09.290Z,9.24
2022-08-10T01:12:34.137Z,7.37
2022-08-10T01:12:38.456Z,5.77
2022-08-10T01:13:21.086Z,7.42
2022-08-10T01:14:24.065Z,8.84
2022-08-10T01:15:26.937Z,8.72
2022-08-10T01:16:30.324Z,8.40
2022-08-10T01:17:50.507Z,7.32
2022-08-10T01:18:38.227Z,5.67
2022-08-10T01:19:41.207Z,7.83
2022-08-10T01:20:44.071Z,8.76
2022-08-10T01:21:56.659Z,10.17
2022-08-10T01:22:52.075Z,9.15
2022-08-10T01:23:54.860Z,11.22
2022-08-10T01:24:58.234Z,8.18
2022-08-10T01:26:11.890Z,7.39
2022-08-10T01:27:06.767Z,10.41
2022-08-10T01:28:10.043Z,9.87
2022-08-10T01:29:13.218Z,10.77
2022-08-10T01:30:16.090Z,8.15
2022-08-10T01:31:19.278Z,8.27
2022-08-10T01:32:22.573Z,8.15
2022-08-10T01:33:31.776Z,6.78
2022-08-10T01:34:30.160Z,8.06
2022-08-10T01:35:33.541Z,7.82
2022-08-10T01:36:36.920Z,11.09
2022-08-10T01:37:40.148Z,8.54
2022-08-10T01:38:44.718Z,8.09
2022-08-10T01:39:47.770Z,7.55
2022-08-10T01:40:50.801Z,7.25
2022-08-10T01:41:53.696Z,6.10
2022-08-10T01:42:59.745Z,6.22
2022-08-10T01:44:03.734Z,8.89
2022-08-10T01:45:06.879Z,8.09
2022-08-10T01:46:10.178Z,8.57
2022-08-10T01:47:12.942Z,9.25
2022-08-10T01:48:16.742Z,6.64
2022-08-10T01:49:19.817Z,6.89
2022-08-10T01:50:22.699Z,7.21
2022-08-10T01:51:25.671Z,7.89
2022-08-10T01:52:28.468Z,8.66
2022-08-10T01:53:40.064Z,8.05
2022-08-10T01:54:35.929Z,9.02
2022-08-10T01:55:38.904Z,8.32
2022-08-10T01:56:41.779Z,8.73
2022-08-10T01:57:44.768Z,6.56
2022-08-10T01:58:47.940Z,9.38
2022-08-10T01:59:58.813Z,10.55
2022-08-10T02:00:55.680Z,6.79
2022-08-10T02:01:58.817Z,7.92
2022-08-10T02:03:02.111Z,10.11
2022-08-10T02:04:06.314Z,9.21
2022-08-10T02:05:09.587Z,5.59
2022-08-10T02:06:12.479Z,6.42
2022-08-10T02:07:16.308Z,10.08
2022-08-10T02:08:19.344Z,6.13
2022-08-10T02:09:25.652Z,5.02
2022-08-10T02:10:28.606Z,8.68
2022-08-10T02:11:55.726Z,8.55
2022-08-10T02:12:36.682Z,9.47
2022-08-10T02:13:39.955Z,7.61
2022-08-10T02:14:43.465Z,8.61
2022-08-10T02:16:01.069Z,10.39
2022-08-10T02:16:51.452Z,10.87
2022-08-10T02:17:59.192Z,20.85
2022-08-10T02:18:59.248Z,7.33
2022-08-10T02:20:02.537Z,8.19
2022-08-10T02:21:05.713Z,5.32
2022-08-10T02:22:36.125Z,5.83
2022-08-10T02:23:13.201Z,4.63
2022-08-10T02:24:16.082Z,5.58
2022-08-10T02:25:41.294Z,4.73
2022-08-10T02:26:24.300Z,5.63
2022-08-10T02:27:27.469Z,5.38
2022-08-10T02:28:31.295Z,5.87
2022-08-10T02:29:34.346Z,5.76
2022-08-10T02:30:37.520Z,7.28
2022-08-10T02:31:40.501Z,5.07
2022-08-10T02:32:43.623Z,6.84
2022-08-10T02:33:57.680Z,6.52
2022-08-10T02:34:53.321Z,6.88
2022-08-10T02:35:56.719Z,7.30
2022-08-10T02:36:59.680Z,4.46
2022-08-10T02:38:02.674Z,7.04
2022-08-10T02:39:05.406Z,5.08
2022-08-10T02:40:08.347Z,8.76
2022-08-10T02:45:15.616Z,7.99
2022-08-10T02:45:18.091Z,9.72
2022-08-10T02:45:22.578Z,9.85
2022-08-10T02:45:23.257Z,9.02
2022-08-10T02:45:32.281Z,8.99
2022-08-10T02:46:35.492Z,7.29
2022-08-10T02:47:51.389Z,6.95
2022-08-10T02:48:43.497Z,7.44
2022-08-10T02:49:46.466Z,7.95
2022-08-10T02:50:49.447Z,7.35
2022-08-10T02:52:07.105Z,7.13
2022-08-10T02:52:57.034Z,6.07
2022-08-10T02:54:00.220Z,8.37
2022-08-10T02:55:05.978Z,6.76
2022-08-10T02:56:07.401Z,7.05
2022-08-10T02:57:10.300Z,7.39
2022-08-10T02:58:18.037Z,8.25
2022-08-10T02:59:19.942Z,8.09
2022-08-10T03:00:22.701Z,6.58
2022-08-10T03:01:25.549Z,7.13
2022-08-10T03:02:28.642Z,6.94
2022-08-10T03:03:31.414Z,5.75
2022-08-10T03:05:53.144Z,5.88
2022-08-10T03:06:56.115Z,4.88
2022-08-10T03:07:59.208Z,5.01
2022-08-10T03:09:02.088Z,5.34
2022-08-10T03:10:04.740Z,7.20
2022-08-10T03:11:09.253Z,6.41
2022-08-10T03:12:37.158Z,7.18
2022-08-10T03:13:16.536Z,8.99
2022-08-10T03:14:19.408Z,7.12
2022-08-10T03:15:22.200Z,6.83
2022-08-10T03:16:25.070Z,9.63
2022-08-10T03:17:29.367Z,8.95
2022-08-10T03:18:32.347Z,6.93
2022-08-10T03:20:34.465Z,9.15
2022-08-10T03:20:40.118Z,7.78
2022-08-10T03:21:43.527Z,7.87
2022-08-10T03:22:47.945Z,6.39
2022-08-10T03:23:50.827Z,6.65
2022-08-10T03:24:53.727Z,4.10
2022-08-10T03:25:56.561Z,4.82
2022-08-10T03:26:59.438Z,4.28
2022-08-10T03:28:02.521Z,3.81
2022-08-10T03:29:05.510Z,2.88
2022-08-10T03:30:29.881Z,4.42
2022-08-10T03:31:13.094Z,3.66
2022-08-10T03:32:16.065Z,3.72
2022-08-10T03:33:18.829Z,5.01
2022-08-10T03:34:32.965Z,3.98
2022-08-10T03:35:26.126Z,5.38
2022-08-10T03:36:43.571Z,3.20
2022-08-10T03:37:33.197Z,4.55
2022-08-10T03:38:36.084Z,3.56
2022-08-10T03:39:39.384Z,3.14
2022-08-10T03:40:46.129Z,4.89
2022-08-10T03:41:53.156Z,4.67
2022-08-10T03:42:51.054Z,5.11
2022-08-10T03:43:53.824Z,4.62
2022-08-10T03:44:57.218Z,4.20
2022-08-10T03:46:00.312Z,5.90
2022-08-10T03:47:03.378Z,4.58
2022-08-10T03:48:07.676Z,3.59
2022-08-10T03:49:10.552Z,3.59
2022-08-10T03:50:27.928Z,2.51
2022-08-10T03:51:18.454Z,4.42
2022-08-10T03:52:21.231Z,5.56
2022-08-10T03:53:24.954Z,6.03
2022-08-10T03:54:28.610Z,5.35
2022-08-10T03:56:30.343Z,7.00
2022-08-10T03:56:36.135Z,7.63
2022-08-10T03:57:41.793Z,8.14
2022-08-10T03:58:43.926Z,5.18
2022-08-10T03:59:47.096Z,5.25
2022-08-10T04:00:50.405Z,4.02
2022-08-10T04:02:52.006Z,5.47
2022-08-10T04:02:58.924Z,5.27
2022-08-10T04:04:12.903Z,3.74
2022-08-10T04:05:07.306Z,5.05
2022-08-10T04:06:10.275Z,4.97
2022-08-10T04:07:13.361Z,4.25
2022-08-10T04:08:16.561Z,4.18
2022-08-10T04:09:19.748Z,3.58
2022-08-10T04:10:22.902Z,4.33
2022-08-10T04:11:25.971Z,4.79
2022-08-10T04:12:29.282Z,5.67
2022-08-10T04:13:32.847Z,3.82
2022-08-10T04:14:49.147Z,5.62
2022-08-10T04:15:40.973Z,5.53
2022-08-10T04:16:44.135Z,3.81
2022-08-10T04:18:03.483Z,3.37
2022-08-10T04:18:52.255Z,3.77
2022-08-10T04:19:56.052Z,5.09
2022-08-10T04:20:59.022Z,5.08
2022-08-10T04:22:02.503Z,4.89
2022-08-10T04:23:05.904Z,4.89
2022-08-10T04:24:09.173Z,6.46
2022-08-10T04:25:13.695Z,5.76
2022-08-10T04:26:17.180Z,7.12
2022-08-10T04:27:20.051Z,7.56
2022-08-10T04:28:23.031Z,7.43
2022-08-10T04:29:26.103Z,4.64
2022-08-10T04:30:29.597Z,8.45
2022-08-10T04:31:32.569Z,5.89
2022-08-10T04:32:36.364Z,6.61
2022-08-10T04:33:39.450Z,5.28
2022-08-10T04:34:42.733Z,5.69
2022-08-10T04:35:45.501Z,6.37
2022-08-10T04:36:48.178Z,5.94
2022-08-10T04:37:50.947Z,4.75
2022-08-10T04:38:53.615Z,4.17
2022-08-10T04:39:56.503Z,3.85
2022-08-10T04:40:59.158Z,6.06
2022-08-10T04:42:01.849Z,3.50
2022-08-10T04:43:11.933Z,4.23
2022-08-10T04:44:09.114Z,3.66
2022-08-10T04:45:12.092Z,3.64
2022-08-10T04:46:42.600Z,5.65
2022-08-10T04:47:57.904Z,3.07
2022-08-10T04:48:41.142Z,3.36
2022-08-10T04:49:54.977Z,2.26
2022-08-10T04:50:32.502Z,2.74
2022-08-10T04:51:35.477Z,3.62
2022-08-10T04:52:38.558Z,5.64
2022-08-10T04:54:03.257Z,2.52
2022-08-10T04:54:45.949Z,2.23
2022-08-10T04:55:48.823Z,2.93
2022-08-10T04:56:51.696Z,3.47
2022-08-10T04:57:54.782Z,3.17
2022-08-10T04:58:57.965Z,2.48
2022-08-10T05:00:00.935Z,2.18
2022-08-10T05:01:04.000Z,2.69
2022-08-10T05:02:28.247Z,2.98
2022-08-10T05:03:11.506Z,2.62
2022-08-10T05:04:37.203Z,5.18
2022-08-10T05:05:18.789Z,3.10
2022-08-10T05:06:21.458Z,4.18
2022-08-10T05:07:24.236Z,3.79
2022-08-10T05:08:27.112Z,2.88
2022-08-10T05:09:29.983Z,1.86
2022-08-10T05:10:32.958Z,2.82
2022-08-10T05:11:35.837Z,2.40
2022-08-10T05:12:39.352Z,3.34
2022-08-10T05:13:42.502Z,4.24
2022-08-10T05:14:45.788Z,2.83
2022-08-10T05:15:48.764Z,3.14
2022-08-10T05:16:51.748Z,5.00
2022-08-10T05:18:08.510Z,4.48
2022-08-10T05:18:59.334Z,5.18
2022-08-10T05:20:06.438Z,6.28
2022-08-10T05:21:07.136Z,3.52
2022-08-10T05:22:09.904Z,4.12
2022-08-10T05:23:12.776Z,5.39
2022-08-10T05:24:15.550Z,7.44
2022-08-10T05:25:18.833Z,6.55
2022-08-10T05:26:21.622Z,5.69
2022-08-10T05:27:24.383Z,6.87
2022-08-10T05:28:27.819Z,5.49
2022-08-10T05:29:31.358Z,8.46
2022-08-10T05:30:34.639Z,8.42
2022-08-10T05:31:37.412Z,8.19
2022-08-10T05:32:58.235Z,8.24
2022-08-10T05:33:44.490Z,8.48
2022-08-10T05:34:47.278Z,7.13
2022-08-10T05:35:56.462Z,7.36
2022-08-10T05:36:54.349Z,6.27
2022-08-10T05:38:13.311Z,6.79
2022-08-10T05:39:01.538Z,7.44
2022-08-10T05:40:04.201Z,6.35
2022-08-10T05:41:07.071Z,6.75
2022-08-10T05:42:09.846Z,8.58
2022-08-10T05:43:12.829Z,8.22
2022-08-10T05:44:17.134Z,8.24
2022-08-10T05:45:20.213Z,7.12
2022-08-10T05:46:22.987Z,7.18
2022-08-10T05:47:25.750Z,8.29
2022-08-10T05:48:55.411Z,7.51
2022-08-10T05:49:34.577Z,7.96
2022-08-10T05:50:37.452Z,7.35
2022-08-10T05:51:40.633Z,6.28
2022-08-10T05:52:43.605Z,7.38
2022-08-10T05:54:02.378Z,6.65
2022-08-10T05:54:50.686Z,7.44
2022-08-10T05:55:53.465Z,4.58
2022-08-10T05:56:58.223Z,6.00
2022-08-10T05:58:00.336Z,7.39
2022-08-10T05:59:03.213Z,9.05
2022-08-10T06:00:32.442Z,11.47
2022-08-10T06:01:10.353Z,8.86
2022-08-10T06:02:33.289Z,7.26
2022-08-10T06:03:17.369Z,7.88
2022-08-10T06:04:21.691Z,8.61
2022-08-10T06:05:24.459Z,12.84
2022-08-10T06:06:27.326Z,12.44
2022-08-10T06:07:30.003Z,8.32
2022-08-10T06:08:32.769Z,6.54
2022-08-10T06:09:35.440Z,7.33
2022-08-10T06:12:23.531Z,6.95
2022-08-10T06:12:24.074Z,6.28
2022-08-10T06:12:54.275Z,6.04
2022-08-10T06:14:13.402Z,6.35
2022-08-10T06:14:59.654Z,7.91
2022-08-10T06:16:01.490Z,8.03
2022-08-10T06:18:23.340Z,5.51
2022-08-10T06:19:26.006Z,5.08
2022-08-10T06:20:30.730Z,4.73
2022-08-10T06:21:33.593Z,4.46
2022-08-10T06:22:36.553Z,4.49
2022-08-10T06:23:39.655Z,4.76
2022-08-10T06:25:04.546Z,3.82
2022-08-10T06:26:11.887Z,5.65
2022-08-10T06:26:51.538Z,8.66
2022-08-10T06:27:54.213Z,5.12
2022-08-10T06:29:03.787Z,4.94
2022-08-10T06:30:01.307Z,7.07
2022-08-10T06:31:03.957Z,5.72
2022-08-10T06:32:06.629Z,5.35
2022-08-10T06:33:09.299Z,6.38
2022-08-10T06:34:11.985Z,8.10
2022-08-10T06:35:14.638Z,10.93
2022-08-10T06:36:17.410Z,7.39
2022-08-10T06:37:20.076Z,6.40
2022-08-10T06:38:22.847Z,8.49
2022-08-10T06:39:35.010Z,9.00
2022-08-10T06:40:29.968Z,5.79
2022-08-10T06:42:14.451Z,6.69
2022-08-10T06:42:37.401Z,5.11
2022-08-10T06:43:40.394Z,6.22
2022-08-10T06:44:43.172Z,6.15
2022-08-10T06:45:45.846Z,6.68
2022-08-10T06:46:50.146Z,5.27
2022-08-10T06:47:52.924Z,6.53
2022-08-10T06:48:55.598Z,5.18
2022-08-10T06:50:00.047Z,6.42
2022-08-10T06:51:02.676Z,8.05
2022-08-10T06:52:05.454Z,9.03
2022-08-10T06:53:08.115Z,7.43
2022-08-10T06:54:10.996Z,5.43
2022-08-10T06:55:16.907Z,6.08
2022-08-10T06:56:17.970Z,6.74
2022-08-10T06:57:20.634Z,6.92
2022-08-10T06:58:26.587Z,5.61
2022-08-10T06:59:27.717Z,6.14
2022-08-10T07:00:33.391Z,9.05
2022-08-10T07:01:34.898Z,5.55
2022-08-10T07:02:37.750Z,6.00
2022-08-10T07:03:40.551Z,5.88
2022-08-10T07:04:43.318Z,11.42
2022-08-10T07:05:50.886Z,6.73
2022-08-10T07:06:50.603Z,8.37
2022-08-10T07:07:53.578Z,9.33
2022-08-10T07:08:56.249Z,8.17
2022-08-10T07:09:59.223Z,7.88
2022-08-10T07:11:01.998Z,8.35
2022-08-10T07:12:07.503Z,7.10
2022-08-10T07:13:09.084Z,7.57
2022-08-10T07:14:16.733Z,9.52
2022-08-10T07:15:16.052Z,9.95
2022-08-10T07:16:18.829Z,9.42
2022-08-10T07:17:21.497Z,8.07
2022-08-10T07:18:24.174Z,5.80
2022-08-10T07:19:28.485Z,7.68
2022-08-10T07:20:31.145Z,9.22
2022-08-10T07:21:34.536Z,7.98
2022-08-10T07:23:08.669Z,8.18
2022-08-10T07:23:57.527Z,10.36
2022-08-10T07:24:46.022Z,9.33
2022-08-10T07:25:49.101Z,8.89
2022-08-10T07:26:52.080Z,9.09
2022-08-10T07:28:00.391Z,7.54
2022-08-10T07:28:59.263Z,9.96
2022-08-10T07:30:01.932Z,12.48
2022-08-10T07:31:04.797Z,7.55
2022-08-10T07:32:09.010Z,9.41
2022-08-10T07:33:11.903Z,12.56
2022-08-10T07:34:28.448Z,9.14
2022-08-10T07:35:19.071Z,7.34
2022-08-10T07:36:21.739Z,8.94
2022-08-10T07:37:24.514Z,7.72
2022-08-10T07:38:27.195Z,7.58
2022-08-10T07:40:02.389Z,8.05
2022-08-10T07:40:34.330Z,7.79
2022-08-10T07:41:37.145Z,9.47
2022-08-10T07:42:45.038Z,10.59
2022-08-10T07:43:44.114Z,7.79
2022-08-10T07:44:47.090Z,6.31
2022-08-10T07:45:49.960Z,10.15
2022-08-10T07:46:52.651Z,8.32
2022-08-10T07:47:55.415Z,10.58
2022-08-10T07:48:58.076Z,12.50
2022-08-10T07:50:00.846Z,7.38
2022-08-10T07:51:03.725Z,9.60
2022-08-10T07:52:06.499Z,11.58
2022-08-10T07:53:09.167Z,9.71
2022-08-10T07:54:12.044Z,10.48
2022-08-10T07:55:14.708Z,13.33
2022-08-10T07:56:45.508Z,9.39
2022-08-10T07:57:30.708Z,12.46
2022-08-10T07:58:25.996Z,10.96
2022-08-10T07:59:28.770Z,10.42
2022-08-10T08:00:31.440Z,10.85
2022-08-10T08:01:34.175Z,8.54
2022-08-10T08:02:37.060Z,8.82
2022-08-10T08:03:39.962Z,9.24
2022-08-10T08:04:42.630Z,10.71
2022-08-10T08:06:02.462Z,8.92
2022-08-10T08:06:49.811Z,9.40
2022-08-10T08:07:52.585Z,12.27
2022-08-10T08:08:55.356Z,7.38
2022-08-10T08:10:00.956Z,8.28
2022-08-10T08:11:02.441Z,9.82
2022-08-10T08:12:05.108Z,10.54
2022-08-10T08:13:07.993Z,9.27
2022-08-10T08:14:10.754Z,12.43
2022-08-10T08:16:17.497Z,11.28
2022-08-10T08:16:22.039Z,10.30
2022-08-10T08:17:22.244Z,9.81
2022-08-10T08:18:26.552Z,9.11
2022-08-10T08:19:37.062Z,12.37
2022-08-10T08:20:33.756Z,13.75
2022-08-10T08:24:05.777Z,9.60
2022-08-10T08:24:09.033Z,13.61
2022-08-10T08:24:30.560Z,11.52
2022-08-10T08:24:49.431Z,9.55
2022-08-10T08:25:53.946Z,12.39
2022-08-10T08:26:57.233Z,10.92
2022-08-10T08:28:00.002Z,14.50
2022-08-10T08:29:04.765Z,13.54
2022-08-10T08:30:07.088Z,15.44
2022-08-10T08:31:09.751Z,12.95
2022-08-10T08:32:18.158Z,13.10
2022-08-10T08:33:41.517Z,13.94
2022-08-10T08:34:25.237Z,12.94
2022-08-10T08:35:29.546Z,13.51
2022-08-10T08:36:32.212Z,15.61
2022-08-10T08:38:32.172Z,12.64
2022-08-10T08:38:39.395Z,13.40
2022-08-10T08:39:44.275Z,13.47
2022-08-10T08:40:46.378Z,14.72
2022-08-10T08:41:49.044Z,14.45
2022-08-10T08:42:51.816Z,12.02
2022-08-10T08:43:57.756Z,18.61
2022-08-10T08:45:00.537Z,13.59
2022-08-10T08:46:03.203Z,12.51
2022-08-10T08:48:01.997Z,10.97
2022-08-10T08:48:18.565Z,14.87
2022-08-10T08:50:05.218Z,14.85
2022-08-10T08:50:25.662Z,13.40
2022-08-10T08:52:09.941Z,14.50
2022-08-10T08:52:34.078Z,16.44
2022-08-10T08:54:01.307Z,14.51
2022-08-10T08:54:42.851Z,13.51
2022-08-10T08:56:05.884Z,19.17
2022-08-10T08:57:01.250Z,15.20
2022-08-10T08:58:10.276Z,13.78
2022-08-10T08:59:12.927Z,13.73
2022-08-10T09:00:18.180Z,12.15
2022-08-10T09:01:21.241Z,13.06
2022-08-10T09:02:25.033Z,13.02
2022-08-10T09:03:29.559Z,15.94
2022-08-10T09:04:35.914Z,16.25
2022-08-10T09:05:58.589Z,17.94
2022-08-10T09:06:43.290Z,14.62
2022-08-10T09:08:01.853Z,13.63
2022-08-10T09:08:52.008Z,15.39
2022-08-10T09:09:54.574Z,18.71
2022-08-10T09:11:01.137Z,20.28
2022-08-10T09:12:03.909Z,16.10
2022-08-10T09:13:06.580Z,14.96
2022-08-10T09:14:09.245Z,17.02
2022-08-10T09:15:12.122Z,11.62
2022-08-10T09:16:17.754Z,12.86
2022-08-10T09:17:20.435Z,13.75
2022-08-10T09:18:23.105Z,14.31
2022-08-10T09:19:35.525Z,14.13
2022-08-10T09:20:30.084Z,13.67
2022-08-10T09:21:32.853Z,15.65
2022-08-10T09:22:35.683Z,14.76
2022-08-10T09:24:01.808Z,17.74
2022-08-10T09:24:45.882Z,17.14
2022-08-10T09:25:50.591Z,17.17
2022-08-10T09:26:54.800Z,16.46
2022-08-10T09:27:57.576Z,18.14
2022-08-10T09:29:12.618Z,14.10
2022-08-10T09:30:11.007Z,14.69
2022-08-10T09:31:22.760Z,13.94
2022-08-10T09:36:16.202Z,15.64
2022-08-10T09:36:19.798Z,13.45
2022-08-10T09:36:24.402Z,15.04
2022-08-10T09:36:28.247Z,14.82
2022-08-10T09:38:01.721Z,12.88
2022-08-10T09:38:58.473Z,11.51
2022-08-10T09:40:12.171Z,10.95
2022-08-10T09:41:12.823Z,13.01
2022-08-10T09:42:14.470Z,13.09
2022-08-10T09:43:26.152Z,13.11
2022-08-10T09:44:18.379Z,15.90
2022-08-10T09:45:21.053Z,14.74
2022-08-10T09:48:01.551Z,14.95
2022-08-10T09:48:48.210Z,18.19
2022-08-10T09:49:55.846Z,17.33
2022-08-10T09:52:05.342Z,17.01
2022-08-10T09:53:18.650Z,16.99
2022-08-10T09:54:21.431Z,18.76
2022-08-10T09:55:24.193Z,18.13
2022-08-10T09:56:29.000Z,22.36
2022-08-10T09:57:54.790Z,16.56
2022-08-10T09:58:36.205Z,17.17
2022-08-10T10:00:01.876Z,19.32
2022-08-10T10:00:43.787Z,16.08
2022-08-10T10:02:02.936Z,17.29
2022-08-10T10:02:51.236Z,16.94
2022-08-10T10:03:54.472Z,16.57
2022-08-10T10:04:57.440Z,15.61
2022-08-10T10:06:00.116Z,16.96
2022-08-10T10:07:02.981Z,15.62
2022-08-10T10:08:05.860Z,14.55
2022-08-10T10:09:10.000Z,15.11
2022-08-10T10:10:14.873Z,12.44
2022-08-10T10:11:17.757Z,13.52
2022-08-10T10:12:25.996Z,15.01
2022-08-10T10:13:52.886Z,13.80
2022-08-10T10:14:34.161Z,17.71
2022-08-10T10:15:40.473Z,18.71
2022-08-10T10:16:43.400Z,15.95
2022-08-10T10:17:46.268Z,18.78
2022-08-10T10:18:49.353Z,18.56
2022-08-10T10:19:52.218Z,16.66
2022-08-10T10:20:55.202Z,19.22
2022-08-10T10:21:58.176Z,16.55
2022-08-10T10:23:01.368Z,15.95
2022-08-10T10:24:22.797Z,15.06
2022-08-10T10:25:20.954Z,14.26
2022-08-10T10:26:18.390Z,17.16
2022-08-10T10:27:18.801Z,17.41
2022-08-10T10:28:21.467Z,16.22
2022-08-10T10:29:56.898Z,17.37
2022-08-10T10:30:28.753Z,19.45
2022-08-10T10:31:31.521Z,22.62
2022-08-10T10:32:37.332Z,20.10
2022-08-10T10:33:38.708Z,19.06
2022-08-10T10:34:41.581Z,16.85
2022-08-10T10:35:44.251Z,16.61
2022-08-10T10:36:47.325Z,15.90
2022-08-10T10:38:00.726Z,15.20
2022-08-10T10:38:54.919Z,15.75
2022-08-10T10:39:57.637Z,16.26
2022-08-10T10:41:00.376Z,17.82
2022-08-10T10:42:04.511Z,15.87
2022-08-10T10:43:07.349Z,16.54
2022-08-10T10:44:10.118Z,16.22
2022-08-10T10:45:12.784Z,16.94
2022-08-10T10:46:15.632Z,13.28
2022-08-10T10:47:19.869Z,11.84
2022-08-10T10:48:24.848Z,13.22
2022-08-10T10:49:26.843Z,12.89
2022-08-10T10:50:29.613Z,16.68
2022-08-10T10:51:32.282Z,14.18
2022-08-10T10:52:35.053Z,12.92
2022-08-10T10:53:39.567Z,11.13
2022-08-10T10:54:42.547Z,12.90
2022-08-10T10:56:13.501Z,15.30
2022-08-10T10:56:50.031Z,11.66
2022-08-10T10:58:00.176Z,12.09
2022-08-10T10:58:57.422Z,12.84
2022-08-10T11:00:00.095Z,12.19
2022-08-10T11:01:03.148Z,11.50
2022-08-10T11:02:06.048Z,13.78
2022-08-10T11:03:17.834Z,16.66
2022-08-10T11:04:20.605Z,9.50
2022-08-10T11:05:23.477Z,13.05
2022-08-10T11:06:39.566Z,13.24
2022-08-10T11:07:32.038Z,14.96
2022-08-10T11:08:34.869Z,13.35
2022-08-10T11:10:05.983Z,11.21
2022-08-10T11:10:46.989Z,13.15
2022-08-10T11:12:00.398Z,16.33
2022-08-10T11:12:52.919Z,11.32
2022-08-10T11:14:25.530Z,15.23
2022-08-10T11:15:00.308Z,12.37
2022-08-10T11:16:03.799Z,14.89
2022-08-10T11:17:06.670Z,16.71
2022-08-10T11:18:09.645Z,13.92
2022-08-10T11:19:14.161Z,13.26
2022-08-10T11:20:16.828Z,14.62
2022-08-10T11:21:19.703Z,15.45
2022-08-10T11:22:24.011Z,13.59
2022-08-10T11:23:26.888Z,12.45
2022-08-10T11:24:44.419Z,14.86
2022-08-10T11:25:33.969Z,13.18
2022-08-10T11:26:36.639Z,13.58
2022-08-10T11:27:39.412Z,10.82
2022-08-10T11:28:42.283Z,12.15
2022-08-10T11:29:49.684Z,9.09
2022-08-10T11:30:49.774Z,13.21
2022-08-10T11:31:52.753Z,12.82
2022-08-10T11:32:55.745Z,10.50
2022-08-10T11:34:48.256Z,10.67
2022-08-10T11:35:10.433Z,11.44
2022-08-10T11:36:07.630Z,11.42
2022-08-10T11:37:10.501Z,12.25
2022-08-10T11:38:32.956Z,10.95
2022-08-10T11:39:17.889Z,10.64
2022-08-10T11:40:20.559Z,11.68
2022-08-10T11:42:09.752Z,15.13
2022-08-10T11:42:35.129Z,12.13
2022-08-10T11:43:32.048Z,12.96
2022-08-10T11:44:34.823Z,12.81
2022-08-10T11:45:37.593Z,14.11
2022-08-10T11:46:42.316Z,11.64
2022-08-10T11:47:45.191Z,9.85
2022-08-10T11:48:53.209Z,11.09
2022-08-10T11:49:52.371Z,9.70
2022-08-10T11:50:55.142Z,11.55
2022-08-10T11:51:57.815Z,13.21
2022-08-10T11:53:00.482Z,14.44
2022-08-10T11:54:03.357Z,12.32
2022-08-10T11:55:06.030Z,18.42
2022-08-10T11:56:11.185Z,13.43
2022-08-10T11:57:13.116Z,11.83
2022-08-10T11:58:17.412Z,12.15
2022-08-10T11:59:20.188Z,16.70
2022-08-10T12:00:22.858Z,13.47
2022-08-10T12:01:25.629Z,15.92
2022-08-10T12:02:28.571Z,17.91
2022-08-10T12:03:34.604Z,14.62
2022-08-10T12:04:35.684Z,16.11
2022-08-10T12:05:48.248Z,12.02
2022-08-10T12:06:55.058Z,15.46
2022-08-10T12:10:02.259Z,15.82
2022-08-10T12:10:07.017Z,14.71
2022-08-10T12:10:11.507Z,14.65
2022-08-10T12:11:00.010Z,12.63
2022-08-10T12:12:02.982Z,14.25
2022-08-10T12:13:05.865Z,12.63
2022-08-10T12:14:21.321Z,14.30
2022-08-10T12:15:12.933Z,14.47
2022-08-10T12:16:15.811Z,16.39
2022-08-10T12:17:18.688Z,13.64
2022-08-10T12:18:21.452Z,14.02
2022-08-10T12:19:24.231Z,13.20
2022-08-10T12:20:26.898Z,11.22
2022-08-10T12:21:29.666Z,13.13
2022-08-10T12:22:32.580Z,10.75
2022-08-10T12:23:39.421Z,13.86
2022-08-10T12:24:39.725Z,12.12
2022-08-10T12:25:56.696Z,12.70
2022-08-10T12:26:46.805Z,10.76
2022-08-10T12:27:49.578Z,13.38
2022-08-10T12:28:52.349Z,14.63
2022-08-10T12:29:55.159Z,13.75
2022-08-10T12:30:58.301Z,14.25
2022-08-10T12:32:01.280Z,15.49
2022-08-10T12:33:04.160Z,16.31
2022-08-10T12:34:06.824Z,14.04
2022-08-10T12:35:09.703Z,16.29
2022-08-10T12:36:18.355Z,16.98
2022-08-10T12:37:16.884Z,15.58
2022-08-10T12:39:38.592Z,14.99
2022-08-10T12:40:41.362Z,15.46
2022-08-10T12:41:45.532Z,14.47
2022-08-10T12:43:00.590Z,16.54
2022-08-10T12:44:06.913Z,15.44
2022-08-10T12:44:57.075Z,14.59
2022-08-10T12:46:04.347Z,14.65
2022-08-10T12:47:10.367Z,16.78
2022-08-10T12:48:08.361Z,15.29
2022-08-10T12:49:11.027Z,15.26
2022-08-10T12:50:33.445Z,15.81
2022-08-10T12:51:18.111Z,15.76
2022-08-10T12:52:20.884Z,19.74
2022-08-10T12:53:23.655Z,15.35
2022-08-10T12:54:32.375Z,16.26
2022-08-10T12:55:30.632Z,16.96
2022-08-10T12:56:36.851Z,15.25
2022-08-10T12:57:37.613Z,16.66
2022-08-10T12:58:57.416Z,18.74
2022-08-10T12:59:44.691Z,14.76
2022-08-10T13:01:12.700Z,17.85
2022-08-10T13:02:06.514Z,15.61
2022-08-10T13:02:56.152Z,15.65
2022-08-10T13:04:21.424Z,17.31
2022-08-10T13:05:03.163Z,16.16
2022-08-10T13:06:05.829Z,16.22
2022-08-10T13:07:08.503Z,16.26
2022-08-10T13:08:27.057Z,14.77
2022-08-10T13:09:15.374Z,18.11
2022-08-10T13:10:18.148Z,16.09
2022-08-10T13:12:35.529Z,18.18
2022-08-10T13:12:38.274Z,14.50
2022-08-10T13:13:29.335Z,15.69
2022-08-10T13:14:32.102Z,15.42
2022-08-10T13:15:49.183Z,14.87
2022-08-10T13:16:39.080Z,15.68
2022-08-10T13:17:53.250Z,15.90
2022-08-10T13:18:46.062Z,15.33
2022-08-10T13:19:55.299Z,18.34
2022-08-10T13:20:53.042Z,15.35
2022-08-10T13:21:55.707Z,16.26
2022-08-10T13:22:58.480Z,15.09
2022-08-10T13:24:04.223Z,15.28
2022-08-10T13:25:05.456Z,17.03
2022-08-10T13:26:08.240Z,15.70
2022-08-10T13:27:26.744Z,13.26
2022-08-10T13:28:36.484Z,18.08
2022-08-10T13:29:24.289Z,14.78
2022-08-10T13:30:37.735Z,17.22
2022-08-10T13:32:03.361Z,16.90
2022-08-10T13:32:32.238Z,16.38
2022-08-10T13:34:39.143Z,16.57
2022-08-10T13:34:44.987Z,16.51
2022-08-10T13:35:43.623Z,16.71
2022-08-10T13:36:46.504Z,18.04
2022-08-10T13:37:49.276Z,18.90
2022-08-10T13:38:51.940Z,18.43
2022-08-10T13:39:57.785Z,17.99
2022-08-10T13:40:58.917Z,16.13
2022-08-10T13:42:01.691Z,15.76
2022-08-10T13:43:04.363Z,16.42
2022-08-10T13:44:07.144Z,16.95
2022-08-10T13:45:10.419Z,18.08
2022-08-10T13:46:22.214Z,18.24
2022-08-10T13:47:17.599Z,16.99
2022-08-10T13:48:20.271Z,19.89
2022-08-10T13:49:23.247Z,14.51
2022-08-10T13:50:33.085Z,15.99
2022-08-10T13:51:57.012Z,19.06
2022-08-10T13:52:34.536Z,18.14
2022-08-10T13:53:37.304Z,17.64
2022-08-10T13:54:40.284Z,19.58
2022-08-10T13:55:48.750Z,21.38
2022-08-10T13:56:47.871Z,23.22
2022-08-10T13:57:50.851Z,23.36
2022-08-10T13:58:55.261Z,21.85
2022-08-10T14:00:36.676Z,20.68